Time;durP1;ratioP1;P1;durP2;ratioP2;P2;SDS_P1;SDS_P2;PMS_P1;PMS_P2;Temp;Humidity;BMP_temperature;BMP_pressure;BME280_temperature;BME280_humidity;BME280_pressure;Samples;Min_cycle;Max_cycle;Signal;HPM_P1;HPM_P2
2022/07/22 00:00:27;;;;;;;60.40;50.03;;;24.30;57.80;;;;;;4985468;27;99069;-68
2022/07/22 00:02:52;;;;;;;61.75;50.45;;;24.40;57.80;;;;;;4990370;27;98352;-69
2022/07/22 00:05:18;;;;;;;60.35;50.30;;;24.40;57.80;;;;;;4966713;27;100041;-68
2022/07/22 00:07:43;;;;;;;60.05;50.30;;;24.30;57.80;;;;;;4986327;27;101649;-68
2022/07/22 00:10:10;;;;;;;60.60;50.33;;;24.30;57.80;;;;;;4999688;27;96305;-68
2022/07/22 00:12:37;;;;;;;60.05;50.30;;;24.30;57.80;;;;;;4988835;27;95465;-68
2022/07/22 00:15:04;;;;;;;60.35;50.28;;;24.30;57.80;;;;;;4998913;27;98111;-69
2022/07/22 00:17:30;;;;;;;59.50;50.15;;;24.30;57.80;;;;;;5001991;27;95231;-68
2022/07/22 00:19:55;;;;;;;60.95;50.25;;;24.30;57.80;;;;;;4994507;27;98943;-68
2022/07/22 00:22:21;;;;;;;59.22;50.13;;;24.30;57.80;;;;;;4997624;27;96356;-69
2022/07/22 00:24:47;;;;;;;60.95;50.05;;;24.30;57.90;;;;;;4986443;27;99434;-68
2022/07/22 00:27:12;;;;;;;60.00;50.15;;;24.30;57.90;;;;;;5006879;27;94963;-69
2022/07/22 00:29:38;;;;;;;59.70;50.20;;;24.30;57.90;;;;;;4990156;27;99298;-68
2022/07/22 00:32:04;;;;;;;60.58;50.30;;;24.30;57.90;;;;;;4994955;27;94974;-68
2022/07/22 00:34:29;;;;;;;60.17;50.20;;;24.30;57.90;;;;;;4975228;27;94829;-68
2022/07/22 00:36:55;;;;;;;61.92;50.28;;;24.30;57.90;;;;;;4979760;27;95656;-69
2022/07/22 00:39:21;;;;;;;59.60;50.10;;;24.20;57.90;;;;;;4986408;27;99482;-68
2022/07/22 00:41:48;;;;;;;60.60;50.13;;;24.20;57.90;;;;;;4986187;27;102537;-68
2022/07/22 00:44:13;;;;;;;60.85;49.95;;;24.20;57.90;;;;;;4994771;27;95490;-69
2022/07/22 00:46:39;;;;;;;59.67;49.85;;;24.20;57.90;;;;;;4985134;27;96023;-69
2022/07/22 00:49:06;;;;;;;60.90;50.60;;;24.20;58.00;;;;;;4979029;27;101141;-68
2022/07/22 00:51:32;;;;;;;61.00;50.30;;;24.20;58.10;;;;;;4986077;27;95987;-68
2022/07/22 00:53:59;;;;;;;59.58;50.15;;;24.20;58.00;;;;;;4972803;27;99909;-69
2022/07/22 00:56:25;;;;;;;59.80;50.42;;;24.20;57.90;;;;;;4993005;27;94966;-68
2022/07/22 00:58:53;;;;;;;61.30;50.35;;;24.20;58.10;;;;;;4986497;27;97636;-68
2022/07/22 01:01:19;;;;;;;60.13;50.25;;;24.20;58.10;;;;;;4996356;27;95409;-68
2022/07/22 01:03:45;;;;;;;60.40;50.22;;;24.20;58.10;;;;;;4993572;27;97201;-69
2022/07/22 01:06:10;;;;;;;60.17;50.03;;;24.20;58.10;;;;;;4953422;27;94923;-68
2022/07/22 01:08:38;;;;;;;61.05;50.15;;;24.20;58.20;;;;;;4985372;27;98117;-68
2022/07/22 01:11:15;;;;;;;60.15;50.10;;;24.10;58.00;;;;;;4991309;27;98853;-68
2022/07/22 01:13:41;;;;;;;59.67;50.33;;;24.20;58.60;;;;;;4979782;27;96647;-68
2022/07/22 01:16:08;;;;;;;61.10;50.10;;;24.10;58.10;;;;;;4992764;27;96972;-69
2022/07/22 01:18:35;;;;;;;60.30;49.90;;;24.10;58.10;;;;;;4994487;27;95170;-69
2022/07/22 01:21:01;;;;;;;60.05;50.00;;;24.10;58.10;;;;;;4968489;27;96740;-68
2022/07/22 01:23:27;;;;;;;59.35;49.78;;;24.10;58.20;;;;;;4987690;27;101741;-68
2022/07/22 01:25:52;;;;;;;60.08;50.28;;;24.10;58.10;;;;;;4983547;27;99226;-69
2022/07/22 01:28:19;;;;;;;60.13;50.25;;;24.10;58.10;;;;;;4987000;27;98931;-68
2022/07/22 01:30:45;;;;;;;60.83;50.42;;;24.10;58.20;;;;;;4976652;27;98786;-68
2022/07/22 01:33:11;;;;;;;60.00;50.03;;;24.10;58.20;;;;;;4994755;27;95214;-69
2022/07/22 01:35:36;;;;;;;61.35;49.95;;;24.10;58.20;;;;;;4982373;27;98890;-68
2022/07/22 01:38:02;;;;;;;60.90;50.13;;;24.10;58.20;;;;;;4987560;27;96615;-68
2022/07/22 01:40:28;;;;;;;59.85;50.08;;;24.10;58.20;;;;;;4998350;27;97060;-69
2022/07/22 01:42:54;;;;;;;60.88;49.83;;;24.10;58.20;;;;;;4987584;27;98482;-68
2022/07/22 01:45:19;;;;;;;59.85;50.03;;;24.10;58.20;;;;;;4975445;27;96192;-68
2022/07/22 01:47:45;;;;;;;60.30;50.00;;;24.10;58.30;;;;;;4992954;27;99389;-68
2022/07/22 01:50:11;;;;;;;59.50;49.88;;;24.10;58.20;;;;;;5009351;27;97046;-68
2022/07/22 01:52:38;;;;;;;59.67;49.92;;;24.10;58.20;;;;;;4950472;27;103744;-68
2022/07/22 01:55:06;;;;;;;60.60;50.22;;;24.10;58.20;;;;;;4972816;27;99976;-68
2022/07/22 01:57:31;;;;;;;59.50;49.63;;;24.10;58.20;;;;;;4972702;27;97328;-69
2022/07/22 01:59:57;;;;;;;58.80;49.80;;;24.10;58.20;;;;;;4993828;27;99466;-68
2022/07/22 02:02:23;;;;;;;59.13;50.05;;;24.10;58.70;;;;;;4978155;27;100481;-68
2022/07/22 02:04:48;;;;;;;60.22;50.03;;;24.10;58.20;;;;;;4972519;27;95951;-68
2022/07/22 02:07:14;;;;;;;59.30;50.03;;;24.10;58.20;;;;;;4983302;27;98980;-68
2022/07/22 02:09:40;;;;;;;59.55;49.83;;;24.00;58.20;;;;;;4982225;27;95487;-68
2022/07/22 02:12:06;;;;;;;58.72;49.55;;;24.10;58.20;;;;;;4996570;27;97188;-68
2022/07/22 02:14:31;;;;;;;58.75;49.55;;;24.10;58.10;;;;;;5003809;27;95302;-68
2022/07/22 02:16:57;;;;;;;59.47;50.08;;;24.10;58.20;;;;;;4986332;27;98464;-69
2022/07/22 02:19:22;;;;;;;59.95;50.03;;;24.10;58.10;;;;;;4987787;27;96893;-68
2022/07/22 02:21:48;;;;;;;59.83;50.05;;;24.10;58.10;;;;;;4988120;27;101422;-68
2022/07/22 02:24:14;;;;;;;59.03;49.78;;;24.10;58.20;;;;;;5000860;27;95089;-68
2022/07/22 02:26:40;;;;;;;60.17;50.03;;;24.10;58.10;;;;;;4989983;27;101927;-68
2022/07/22 02:29:05;;;;;;;59.67;50.00;;;24.10;58.10;;;;;;4987516;27;99520;-68
2022/07/22 02:31:31;;;;;;;59.28;50.03;;;24.10;58.10;;;;;;4991805;27;98835;-68
2022/07/22 02:33:57;;;;;;;58.97;49.97;;;24.10;58.10;;;;;;4967955;27;95406;-69
2022/07/22 02:36:22;;;;;;;60.72;49.90;;;24.10;58.10;;;;;;4974098;27;104992;-70
2022/07/22 02:38:48;;;;;;;58.70;49.67;;;24.10;58.10;;;;;;4979636;27;101198;-68
2022/07/22 02:41:14;;;;;;;59.45;49.75;;;24.00;58.10;;;;;;5000511;27;95912;-67
2022/07/22 02:43:39;;;;;;;59.85;49.92;;;24.10;58.10;;;;;;4985527;27;97639;-68
2022/07/22 02:46:05;;;;;;;59.13;49.65;;;24.10;58.00;;;;;;4984096;27;96381;-69
2022/07/22 02:48:31;;;;;;;59.97;49.72;;;24.10;58.00;;;;;;4992274;27;96506;-68
2022/07/22 02:50:56;;;;;;;59.45;49.75;;;24.10;58.00;;;;;;5001059;27;96652;-68
2022/07/22 02:53:22;;;;;;;58.88;49.65;;;24.10;58.00;;;;;;4991557;27;95017;-68
2022/07/22 02:55:48;;;;;;;59.22;49.75;;;24.10;58.00;;;;;;4963712;27;100400;-69
2022/07/22 02:58:13;;;;;;;58.85;49.63;;;24.10;58.00;;;;;;4986940;27;95412;-68
2022/07/22 03:00:39;;;;;;;59.50;49.90;;;24.00;58.00;;;;;;5004315;27;96623;-68
2022/07/22 03:03:05;;;;;;;58.72;49.67;;;24.00;58.00;;;;;;4988674;27;99308;-68
2022/07/22 03:05:30;;;;;;;59.25;49.85;;;24.10;58.70;;;;;;4973402;27;96112;-67
2022/07/22 03:07:56;;;;;;;58.90;49.65;;;24.00;58.10;;;;;;4994356;27;97045;-68
2022/07/22 03:10:22;;;;;;;59.50;50.03;;;24.00;58.00;;;;;;5001144;27;95049;-68
2022/07/22 03:12:47;;;;;;;59.47;49.88;;;24.00;58.00;;;;;;4994979;27;95981;-69
2022/07/22 03:15:13;;;;;;;59.28;49.83;;;24.00;58.00;;;;;;4982845;27;95505;-67
2022/07/22 03:17:39;;;;;;;59.55;49.85;;;24.10;58.00;;;;;;4976270;27;96170;-68
2022/07/22 03:20:06;;;;;;;59.00;49.60;;;24.00;58.10;;;;;;5008362;27;96949;-69
2022/07/22 03:22:32;;;;;;;59.90;49.70;;;24.00;58.00;;;;;;4971420;27;97699;-68
2022/07/22 03:24:58;;;;;;;58.72;49.80;;;24.00;58.00;;;;;;4991661;27;101954;-68
2022/07/22 03:27:24;;;;;;;59.13;49.85;;;24.00;58.00;;;;;;4995044;27;95014;-68
2022/07/22 03:29:49;;;;;;;59.75;49.83;;;24.00;58.00;;;;;;4981641;27;96754;-68
2022/07/22 03:32:15;;;;;;;59.58;50.00;;;24.00;58.10;;;;;;4991445;27;98207;-68
2022/07/22 03:34:40;;;;;;;59.45;49.88;;;24.00;58.60;;;;;;4982624;27;96497;-68
2022/07/22 03:37:06;;;;;;;58.70;49.67;;;24.00;57.90;;;;;;4992276;27;98563;-68
2022/07/22 03:39:32;;;;;;;59.00;49.85;;;24.00;58.00;;;;;;4981620;27;98740;-68
2022/07/22 03:41:58;;;;;;;59.65;49.75;;;24.00;58.00;;;;;;5004245;27;95469;-68
2022/07/22 03:44:24;;;;;;;59.63;49.90;;;24.00;58.00;;;;;;4998404;27;95706;-69
2022/07/22 03:46:49;;;;;;;59.42;49.70;;;24.00;57.90;;;;;;4991429;27;102367;-68
2022/07/22 03:49:15;;;;;;;59.58;49.78;;;24.00;58.00;;;;;;4991269;27;95132;-68
2022/07/22 03:51:41;;;;;;;59.00;49.83;;;24.00;58.00;;;;;;4998536;27;95738;-68
2022/07/22 03:54:07;;;;;;;58.85;49.75;;;24.00;58.00;;;;;;4999359;27;97829;-68
2022/07/22 03:56:33;;;;;;;58.53;49.53;;;24.00;58.00;;;;;;4987578;27;95580;-69
2022/07/22 03:58:58;;;;;;;58.83;49.80;;;24.00;58.00;;;;;;4982267;27;95562;-68
2022/07/22 04:01:24;;;;;;;59.05;49.47;;;24.00;58.00;;;;;;4995240;27;96801;-68
2022/07/22 04:03:49;;;;;;;59.42;50.03;;;24.00;58.10;;;;;;4980027;27;97535;-68
2022/07/22 04:06:16;;;;;;;58.80;49.75;;;24.00;58.00;;;;;;4995453;27;95275;-68
2022/07/22 04:08:42;;;;;;;59.08;49.75;;;24.00;57.90;;;;;;4986424;27;104292;-69
2022/07/22 04:11:07;;;;;;;59.90;49.90;;;24.00;58.00;;;;;;4989981;27;94604;-68
2022/07/22 04:13:33;;;;;;;58.75;49.45;;;24.00;58.00;;;;;;4981406;27;95781;-68
2022/07/22 04:15:59;;;;;;;59.25;49.58;;;24.00;58.00;;;;;;4975094;27;100862;-68
2022/07/22 04:18:25;;;;;;;59.50;49.85;;;24.00;58.00;;;;;;4980985;27;98389;-68
2022/07/22 04:20:50;;;;;;;59.35;49.72;;;24.00;58.00;;;;;;4991133;27;95464;-68
2022/07/22 04:23:16;;;;;;;58.85;49.65;;;24.00;58.00;;;;;;4998038;27;95349;-68
2022/07/22 04:25:42;;;;;;;59.70;49.72;;;24.00;58.00;;;;;;4978714;27;102116;-68
2022/07/22 04:28:07;;;;;;;58.85;49.58;;;24.00;58.00;;;;;;4993713;27;100485;-68
2022/07/22 04:30:33;;;;;;;58.58;49.47;;;24.00;58.00;;;;;;4973229;27;96415;-68
2022/07/22 04:32:59;;;;;;;58.75;49.85;;;24.00;58.00;;;;;;4989086;27;97178;-68
2022/07/22 04:35:25;;;;;;;58.63;49.70;;;24.00;58.00;;;;;;4991977;27;96345;-68
2022/07/22 04:37:50;;;;;;;58.88;49.63;;;24.00;58.10;;;;;;4995584;27;95607;-68
2022/07/22 04:40:16;;;;;;;58.78;49.75;;;24.00;58.10;;;;;;4987038;27;95035;-69
2022/07/22 04:42:42;;;;;;;59.28;49.65;;;24.00;58.10;;;;;;4982642;27;96391;-68
2022/07/22 04:45:07;;;;;;;58.50;49.63;;;24.00;58.20;;;;;;4983618;27;96112;-68
2022/07/22 04:47:33;;;;;;;58.67;49.85;;;24.00;58.00;;;;;;4994173;27;95718;-69
2022/07/22 04:49:59;;;;;;;58.42;49.63;;;24.00;58.00;;;;;;4990795;27;95339;-68
2022/07/22 04:52:24;;;;;;;58.92;49.72;;;24.00;58.10;;;;;;4949386;27;101955;-68
2022/07/22 04:54:50;;;;;;;58.70;49.60;;;24.00;58.10;;;;;;4981892;27;97140;-68
2022/07/22 04:57:16;;;;;;;58.92;49.65;;;24.00;58.10;;;;;;4967405;27;95488;-68
2022/07/22 04:59:42;;;;;;;59.13;49.78;;;24.00;58.00;;;;;;4983483;27;94418;-68
2022/07/22 05:02:08;;;;;;;59.38;49.53;;;24.00;58.00;;;;;;4987050;27;97334;-68
2022/07/22 05:04:34;;;;;;;58.55;49.75;;;24.00;58.00;;;;;;5003809;27;96265;-68
2022/07/22 05:06:59;;;;;;;58.55;49.50;;;24.00;58.10;;;;;;4975066;27;97950;-68
2022/07/22 05:09:25;;;;;;;59.00;49.63;;;23.90;58.00;;;;;;4974191;27;96344;-67
2022/07/22 05:11:51;;;;;;;58.83;49.83;;;23.90;58.10;;;;;;5001784;27;95994;-68
2022/07/22 05:14:16;;;;;;;58.65;49.63;;;23.90;58.00;;;;;;4981206;27;96799;-68
2022/07/22 05:16:42;;;;;;;59.65;49.72;;;24.00;58.10;;;;;;4976536;27;97844;-68
2022/07/22 05:19:08;;;;;;;58.58;49.53;;;24.00;58.00;;;;;;4988048;27;96850;-68
2022/07/22 05:21:33;;;;;;;58.65;49.60;;;24.00;58.00;;;;;;4989977;27;98168;-68
2022/07/22 05:23:59;;;;;;;58.55;49.65;;;24.00;58.00;;;;;;4967749;27;101010;-68
2022/07/22 05:26:28;;;;;;;59.70;49.75;;;24.00;58.00;;;;;;4966195;27;95984;-68
2022/07/22 05:28:54;;;;;;;59.28;49.75;;;24.00;58.10;;;;;;4954254;27;98924;-68
2022/07/22 05:31:19;;;;;;;59.00;49.58;;;24.00;58.10;;;;;;4992766;27;97301;-68
2022/07/22 05:33:45;;;;;;;58.95;49.65;;;24.00;58.10;;;;;;4971910;27;98857;-68
2022/07/22 05:36:10;;;;;;;59.22;49.75;;;24.00;58.00;;;;;;4987157;27;97823;-68
2022/07/22 05:38:36;;;;;;;59.55;49.83;;;24.00;58.00;;;;;;4987674;27;96016;-68
2022/07/22 05:41:02;;;;;;;58.15;49.45;;;24.00;58.00;;;;;;4980924;27;99003;-68
2022/07/22 05:43:28;;;;;;;59.25;49.72;;;24.00;58.10;;;;;;4991077;27;95982;-68
2022/07/22 05:45:54;;;;;;;58.97;49.75;;;24.00;58.10;;;;;;4981192;27;97474;-68
2022/07/22 05:48:20;;;;;;;58.88;49.75;;;24.00;58.00;;;;;;4989719;27;98447;-68
2022/07/22 05:50:45;;;;;;;58.60;49.70;;;24.00;58.10;;;;;;4996934;27;100824;-68
2022/07/22 05:53:11;;;;;;;59.45;49.65;;;24.00;58.00;;;;;;4989629;27;94951;-68
2022/07/22 05:55:36;;;;;;;58.92;49.85;;;24.00;58.10;;;;;;4990794;27;98571;-69
2022/07/22 05:58:02;;;;;;;59.10;49.70;;;24.00;58.00;;;;;;4981208;27;95515;-68
2022/07/22 06:00:28;;;;;;;58.83;49.65;;;24.00;58.00;;;;;;5007437;27;96137;-68
2022/07/22 06:02:53;;;;;;;58.88;49.75;;;24.00;58.00;;;;;;4994273;27;100524;-69
2022/07/22 06:05:19;;;;;;;58.58;49.65;;;24.00;58.00;;;;;;4974593;27;99221;-67
2022/07/22 06:07:45;;;;;;;58.70;49.75;;;24.00;58.00;;;;;;4976039;27;95642;-69
2022/07/22 06:10:11;;;;;;;58.92;49.75;;;24.00;58.00;;;;;;5001992;27;95891;-68
2022/07/22 06:12:36;;;;;;;59.05;49.70;;;24.00;58.00;;;;;;4986308;27;96480;-69
2022/07/22 06:15:03;;;;;;;58.72;49.67;;;24.00;58.00;;;;;;4991883;27;99700;-68
2022/07/22 06:17:28;;;;;;;59.30;49.55;;;24.00;57.90;;;;;;4989991;27;102048;-68
2022/07/22 06:19:54;;;;;;;59.00;49.75;;;24.10;58.00;;;;;;4983503;27;98277;-68
2022/07/22 06:22:20;;;;;;;58.78;49.72;;;24.10;58.00;;;;;;4987542;27;95350;-68
2022/07/22 06:24:45;;;;;;;58.80;49.95;;;24.10;58.00;;;;;;4994801;27;99263;-68
2022/07/22 06:27:11;;;;;;;59.65;49.85;;;24.10;58.00;;;;;;4992463;27;98501;-69
2022/07/22 06:29:36;;;;;;;58.60;49.65;;;24.10;58.00;;;;;;4981758;27;101124;-69
2022/07/22 06:32:02;;;;;;;58.95;49.55;;;24.10;57.90;;;;;;4991627;27;97851;-68
2022/07/22 06:34:29;;;;;;;59.50;49.90;;;24.10;57.90;;;;;;4992094;27;100838;-69
2022/07/22 06:36:54;;;;;;;59.78;49.75;;;24.10;57.90;;;;;;4982505;27;95220;-68
2022/07/22 06:39:20;;;;;;;58.53;49.65;;;24.10;57.90;;;;;;4990232;27;97894;-68
2022/07/22 06:41:46;;;;;;;58.40;49.55;;;24.10;57.90;;;;;;4995533;27;96570;-69
2022/07/22 06:44:11;;;;;;;59.60;49.75;;;24.10;58.00;;;;;;4976581;27;100742;-69
2022/07/22 06:46:37;;;;;;;58.85;49.75;;;24.10;58.00;;;;;;4980700;27;95325;-68
2022/07/22 06:49:03;;;;;;;58.72;49.83;;;24.10;57.90;;;;;;4989874;27;103678;-68
2022/07/22 06:51:28;;;;;;;59.17;49.70;;;24.10;57.90;;;;;;4998840;27;97088;-68
2022/07/22 06:53:54;;;;;;;59.03;49.58;;;24.10;57.90;;;;;;5002374;27;99978;-69
2022/07/22 06:56:19;;;;;;;58.85;49.65;;;24.10;57.90;;;;;;5008265;27;97123;-69
2022/07/22 06:58:45;;;;;;;59.05;49.95;;;24.10;57.90;;;;;;4980832;27;96222;-70
2022/07/22 07:01:11;;;;;;;58.75;49.90;;;24.10;57.90;;;;;;4977757;27;98614;-68
2022/07/22 07:03:37;;;;;;;59.35;49.60;;;24.10;57.80;;;;;;4995809;27;94843;-68
2022/07/22 07:06:04;;;;;;;59.03;49.83;;;24.20;57.90;;;;;;4990088;27;102687;-69
2022/07/22 07:08:29;;;;;;;59.22;49.55;;;24.20;57.90;;;;;;4973216;27;97823;-68
2022/07/22 07:10:55;;;;;;;59.05;49.85;;;24.20;57.90;;;;;;4976479;27;101401;-68
2022/07/22 07:13:21;;;;;;;58.72;49.72;;;24.20;57.90;;;;;;4990248;27;97321;-69
2022/07/22 07:15:46;;;;;;;58.63;49.65;;;24.20;58.10;;;;;;4970785;27;98467;-68
2022/07/22 07:18:12;;;;;;;60.22;49.75;;;24.20;58.10;;;;;;4996445;27;102886;-69
2022/07/22 07:20:38;;;;;;;59.97;49.85;;;24.20;58.20;;;;;;4988559;27;95626;-69
2022/07/22 07:23:03;;;;;;;59.13;49.85;;;24.10;58.20;;;;;;5000301;27;97236;-69
2022/07/22 07:25:29;;;;;;;59.30;49.97;;;24.20;58.60;;;;;;4989745;27;94273;-68
2022/07/22 07:27:55;;;;;;;59.33;49.97;;;24.20;58.80;;;;;;4992599;27;96995;-69
2022/07/22 07:30:21;;;;;;;61.25;50.33;;;24.20;59.10;;;;;;4980934;27;96445;-68
2022/07/22 07:32:47;;;;;;;62.45;50.75;;;24.20;58.80;;;;;;4991374;27;100979;-68
2022/07/22 07:35:12;;;;;;;63.72;50.80;;;24.20;57.70;;;;;;4993308;27;97742;-70
2022/07/22 07:37:38;;;;;;;64.38;51.38;;;24.20;57.00;;;;;;4981232;27;97009;-70
2022/07/22 07:40:05;;;;;;;65.82;50.75;;;24.00;56.70;;;;;;4970623;27;96962;-69
2022/07/22 07:42:31;;;;;;;68.15;51.17;;;24.00;56.70;;;;;;4996607;27;95464;-69
2022/07/22 07:44:56;;;;;;;66.10;50.80;;;23.90;56.40;;;;;;4996535;27;99832;-70
2022/07/22 07:47:22;;;;;;;63.20;50.92;;;24.00;56.50;;;;;;4993303;27;96585;-70
2022/07/22 07:49:48;;;;;;;65.07;51.15;;;23.90;57.00;;;;;;4989909;27;94807;-70
2022/07/22 07:52:15;;;;;;;63.97;50.95;;;23.90;56.90;;;;;;5008556;27;97802;-70
2022/07/22 07:54:42;;;;;;;65.78;51.28;;;23.90;56.70;;;;;;5014974;27;94728;-70
2022/07/22 07:57:10;;;;;;;65.10;51.55;;;23.90;56.60;;;;;;4978687;27;99942;-69
2022/07/22 07:59:36;;;;;;;68.88;51.20;;;23.90;56.70;;;;;;4979514;27;96374;-71
2022/07/22 08:02:05;;;;;;;67.43;51.13;;;24.00;56.70;;;;;;5000950;27;97304;-71
2022/07/22 08:04:32;;;;;;;67.15;51.58;;;24.00;56.40;;;;;;5005264;27;95397;-68
2022/07/22 08:06:58;;;;;;;65.38;51.33;;;24.00;56.40;;;;;;4986639;27;101346;-70
2022/07/22 08:09:24;;;;;;;64.85;51.38;;;24.00;55.90;;;;;;4984028;27;95429;-72
2022/07/22 08:11:50;;;;;;;65.95;51.35;;;23.90;56.10;;;;;;4990169;27;97629;-69
2022/07/22 08:14:16;;;;;;;70.20;51.90;;;24.00;56.10;;;;;;4974883;27;97139;-68
2022/07/22 08:16:42;;;;;;;65.15;51.33;;;24.10;55.80;;;;;;4990406;27;95682;-71
2022/07/22 08:19:07;;;;;;;65.40;51.53;;;24.10;55.90;;;;;;4988257;27;95707;-70
2022/07/22 08:21:35;;;;;;;65.13;51.42;;;24.10;55.10;;;;;;5010995;27;100186;-71
2022/07/22 08:24:00;;;;;;;64.72;51.53;;;24.00;55.90;;;;;;4985376;27;97384;-70
2022/07/22 08:26:26;;;;;;;65.85;51.15;;;24.00;55.80;;;;;;4991800;27;96296;-71
2022/07/22 08:28:52;;;;;;;66.85;51.25;;;24.00;56.30;;;;;;4996337;27;95019;-70
2022/07/22 08:31:17;;;;;;;65.57;51.67;;;24.00;55.30;;;;;;4994674;27;101037;-71
2022/07/22 08:33:43;;;;;;;66.40;51.45;;;24.00;55.90;;;;;;4987603;27;96568;-70
2022/07/22 08:36:09;;;;;;;63.63;50.92;;;24.00;55.50;;;;;;4992495;27;97526;-71
2022/07/22 08:38:35;;;;;;;63.63;51.17;;;23.90;55.20;;;;;;4981207;27;97110;-70
2022/07/22 08:41:03;;;;;;;67.28;51.13;;;23.90;55.50;;;;;;4994853;27;95795;-72
2022/07/22 08:43:30;;;;;;;66.78;51.05;;;23.80;55.50;;;;;;4990396;27;99985;-71
2022/07/22 08:45:57;;;;;;;64.78;51.20;;;23.70;56.20;;;;;;4987124;27;97585;-71
2022/07/22 08:48:22;;;;;;;65.95;51.25;;;23.80;55.70;;;;;;5010721;27;99700;-70
2022/07/22 08:50:48;;;;;;;65.68;51.35;;;23.80;55.80;;;;;;4952302;27;96067;-71
2022/07/22 08:53:14;;;;;;;66.72;51.33;;;24.00;55.80;;;;;;4938332;27;97579;-69
2022/07/22 08:55:44;;;;;;;66.72;51.42;;;24.00;55.90;;;;;;4970044;27;95528;-71
2022/07/22 08:58:10;;;;;;;65.65;51.33;;;24.10;56.30;;;;;;4989867;27;97761;-72
2022/07/22 09:00:36;;;;;;;66.22;51.28;;;24.10;56.10;;;;;;4974218;27;97282;-70
2022/07/22 09:03:17;;;;;;;62.95;51.67;;;24.20;55.70;;;;;;4980853;27;96067;-71
2022/07/22 09:05:43;;;;;;;62.97;50.95;;;24.20;55.30;;;;;;4971971;27;96511;-69
2022/07/22 09:08:09;;;;;;;65.05;51.10;;;24.10;55.10;;;;;;4971140;27;95714;-71
2022/07/22 09:10:35;;;;;;;65.20;51.17;;;24.10;55.10;;;;;;4990249;27;95860;-72
2022/07/22 09:13:03;;;;;;;67.57;51.60;;;24.10;54.70;;;;;;4989688;27;96619;-71
2022/07/22 09:15:32;;;;;;;66.40;51.13;;;24.20;54.40;;;;;;4964942;27;96759;-72
2022/07/22 09:17:59;;;;;;;62.35;50.90;;;24.20;54.40;;;;;;4975921;27;97574;-72
2022/07/22 09:20:26;;;;;;;65.63;51.25;;;24.10;54.90;;;;;;4977492;27;95789;-71
2022/07/22 09:22:52;;;;;;;62.97;51.00;;;24.20;54.30;;;;;;5002095;27;97082;-71
2022/07/22 09:25:34;;;;;;;65.18;51.40;;;24.10;55.10;;;;;;5000451;27;96698;-71
2022/07/22 09:28:06;;;;;;;64.85;51.38;;;24.10;54.10;;;;;;5000916;27;96122;-71
2022/07/22 09:30:53;;;;;;;65.72;51.45;;;24.10;54.50;;;;;;4995586;27;96139;-71
2022/07/22 09:33:20;;;;;;;62.47;51.03;;;24.10;54.20;;;;;;4983023;27;94673;-71
2022/07/22 09:35:47;;;;;;;66.03;51.20;;;24.00;54.90;;;;;;4973190;27;102867;-71
2022/07/22 09:38:14;;;;;;;70.78;51.60;;;24.00;55.90;;;;;;4955092;27;101445;-69
2022/07/22 09:40:45;;;;;;;63.63;51.55;;;24.10;55.40;;;;;;4986878;27;96058;-71
2022/07/22 09:43:16;;;;;;;;;;;24.10;55.00;;;;;;4989858;27;95193;-71
2022/07/22 09:45:49;;;;;;;64.32;51.08;;;24.20;55.30;;;;;;5007969;27;95458;-72
2022/07/22 09:48:20;;;;;;;66.30;51.35;;;24.20;54.40;;;;;;4987310;27;96304;-72
2022/07/22 09:50:47;;;;;;;65.15;51.10;;;24.30;53.70;;;;;;4997151;27;96067;-71
2022/07/22 09:53:13;;;;;;;65.03;51.50;;;24.20;53.90;;;;;;5009757;27;94482;-70
2022/07/22 09:55:39;;;;;;;65.47;51.60;;;24.20;53.90;;;;;;4997141;27;94899;-71
2022/07/22 09:58:07;;;;;;;67.97;51.53;;;24.20;54.70;;;;;;4991391;27;97708;-71
2022/07/22 10:00:34;;;;;;;63.95;51.63;;;24.20;54.90;;;;;;4989743;27;96174;-72
2022/07/22 10:03:02;;;;;;;64.07;51.58;;;24.20;55.40;;;;;;4974531;27;97413;-71
2022/07/22 10:05:34;;;;;;;74.38;51.47;;;24.20;55.30;;;;;;4986671;27;98974;-71
2022/07/22 10:08:01;;;;;;;68.55;52.08;;;24.20;55.50;;;;;;4944267;27;97784;-70
2022/07/22 10:10:28;;;;;;;66.63;51.85;;;24.30;55.50;;;;;;4993637;27;102514;-71
2022/07/22 10:12:56;;;;;;;64.82;51.83;;;24.30;55.00;;;;;;5001600;27;95710;-71
2022/07/22 10:15:23;;;;;;;62.78;51.05;;;24.40;55.00;;;;;;4988265;27;96435;-71
2022/07/22 10:17:52;;;;;;;64.47;51.60;;;24.40;55.00;;;;;;4982428;27;100745;-71
2022/07/22 10:20:25;;;;;;;68.20;51.78;;;24.40;54.40;;;;;;4989306;27;95853;-71
2022/07/22 10:23:03;;;;;;;64.45;51.85;;;24.40;55.30;;;;;;4991053;27;100517;-71
2022/07/22 10:25:48;;;;;;;64.97;51.78;;;24.50;54.80;;;;;;4993216;27;99747;-71
2022/07/22 10:28:29;;;;;;;67.93;52.05;;;24.40;55.10;;;;;;5008889;27;95958;-72
2022/07/22 10:31:13;;;;;;;;;;;24.50;54.40;;;;;;4999921;27;96271;-71
2022/07/22 10:33:40;;;;;;;66.28;51.85;;;24.60;54.10;;;;;;4985500;27;94739;-71
2022/07/22 10:36:06;;;;;;;66.85;51.70;;;24.70;53.90;;;;;;4974354;27;96680;-71
2022/07/22 10:38:32;;;;;;;68.95;52.30;;;24.60;54.40;;;;;;4974177;27;97057;-71
2022/07/22 10:41:02;;;;;;;66.07;51.75;;;24.50;54.60;;;;;;4980513;27;95223;-70
2022/07/22 10:43:30;;;;;;;64.57;51.40;;;24.50;54.40;;;;;;4993399;27;94771;-72
2022/07/22 10:45:55;;;;;;;65.03;51.65;;;24.60;54.60;;;;;;4986586;27;100579;-72
2022/07/22 10:48:36;;;;;;;67.72;52.25;;;24.70;54.10;;;;;;4979393;27;100793;-71
2022/07/22 10:51:13;;;;;;;63.37;51.97;;;24.70;53.60;;;;;;5006321;27;102172;-71
2022/07/22 10:53:47;;;;;;;65.53;52.05;;;24.70;54.10;;;;;;4990040;27;99682;-71
2022/07/22 10:56:26;;;;;;;64.88;51.70;;;24.60;54.40;;;;;;4987978;27;95502;-71
2022/07/22 10:58:52;;;;;;;65.55;51.65;;;24.70;53.80;;;;;;4986899;27;97190;-71
2022/07/22 11:01:20;;;;;;;65.05;51.90;;;24.80;53.60;;;;;;5003513;27;95483;-71
2022/07/22 11:03:47;;;;;;;69.03;52.03;;;24.70;53.60;;;;;;5000893;27;96195;-71
2022/07/22 11:06:17;;;;;;;66.25;52.30;;;24.80;53.60;;;;;;4984616;27;95515;-71
2022/07/22 11:08:45;;;;;;;67.63;51.75;;;24.80;53.90;;;;;;4989080;27;94974;-71
2022/07/22 11:11:11;;;;;;;65.15;51.80;;;24.80;54.00;;;;;;4977988;27;98763;-71
2022/07/22 11:13:40;;;;;;;65.97;52.25;;;24.70;54.10;;;;;;5004020;27;94952;-69
2022/07/22 11:16:25;;;;;;;67.35;51.90;;;24.80;54.50;;;;;;4992759;27;101858;-70
2022/07/22 11:18:54;;;;;;;65.93;52.25;;;24.90;53.40;;;;;;4991403;27;100957;-71
2022/07/22 11:21:23;;;;;;;67.82;52.17;;;24.80;53.30;;;;;;4978640;27;98731;-70
2022/07/22 11:23:51;;;;;;;64.20;51.88;;;24.90;53.40;;;;;;4974224;27;98567;-71
2022/07/22 11:26:24;;;;;;;66.40;52.08;;;24.80;53.80;;;;;;4993538;27;100919;-71
2022/07/22 11:28:50;;;;;;;65.50;52.35;;;24.90;53.80;;;;;;4976769;27;97272;-71
2022/07/22 11:31:17;;;;;;;66.88;52.42;;;24.90;54.00;;;;;;4985218;27;96735;-70
2022/07/22 11:33:44;;;;;;;66.60;52.03;;;24.90;54.10;;;;;;4996453;27;94270;-72
2022/07/22 11:36:10;;;;;;;68.28;52.08;;;24.90;54.10;;;;;;4991272;27;97828;-70
2022/07/22 11:38:45;;;;;;;65.55;52.38;;;24.90;53.50;;;;;;4985393;27;95976;-70
2022/07/22 11:41:13;;;;;;;64.75;52.30;;;25.00;52.50;;;;;;4988570;27;96876;-70
2022/07/22 11:43:49;;;;;;;67.85;52.45;;;25.00;52.90;;;;;;4979474;27;94949;-73
2022/07/22 11:46:17;;;;;;;65.22;52.10;;;25.00;52.80;;;;;;4991936;27;102461;-72
2022/07/22 11:48:44;;;;;;;66.10;52.17;;;25.00;52.80;;;;;;4995838;27;95635;-71
2022/07/22 11:51:11;;;;;;;65.55;52.35;;;25.00;52.40;;;;;;4986851;27;96056;-70
2022/07/22 11:53:39;;;;;;;64.60;52.45;;;25.00;53.00;;;;;;4989592;27;95411;-71
2022/07/22 11:56:07;;;;;;;70.75;52.78;;;25.00;53.10;;;;;;4986180;27;101538;-70
2022/07/22 11:58:43;;;;;;;69.88;52.40;;;25.00;53.30;;;;;;4984140;27;100492;-70
2022/07/22 12:01:11;;;;;;;67.13;52.60;;;25.10;53.10;;;;;;4975080;27;96105;-69
2022/07/22 12:03:39;;;;;;;68.15;52.58;;;25.20;53.30;;;;;;4976878;27;97678;-70
2022/07/22 12:06:08;;;;;;;65.18;52.40;;;25.10;53.10;;;;;;4981941;27;96499;-70
2022/07/22 12:08:39;;;;;;;68.13;52.45;;;25.20;52.80;;;;;;4982117;27;97899;-71
2022/07/22 12:11:04;;;;;;;;;;;25.20;52.30;;;;;;4994472;27;95275;-70
2022/07/22 12:13:31;;;;;;;66.88;52.35;;;25.20;53.10;;;;;;4981034;27;98432;-70
2022/07/22 12:15:57;;;;;;;64.47;52.13;;;25.20;52.20;;;;;;4975118;28;95662;-70
2022/07/22 12:18:25;;;;;;;68.45;52.63;;;25.20;52.00;;;;;;4990227;27;95360;-70
2022/07/22 12:20:52;;;;;;;65.95;52.47;;;25.20;52.60;;;;;;4985186;27;99675;-70
2022/07/22 12:23:18;;;;;;;68.85;52.65;;;25.20;53.20;;;;;;4993479;27;95646;-71